• Join FlightAware (Why Join?)
  • Login
  • US Flag 
10:03AM EDT


 

Airport Tracker/Info


-or-


 

Live Flight TrackerFlight Track Log ✈ N682RW ✈ 10-Mar-2014 ✈ KDTW - KCMH

Flight Track Log - Related Links

Times and Time Zones

All times are in EDT time to prevent confusion due to time zone crossing. See the N682RW flight status page for this flight to view local times or setup timezone preferences in your user account.

Time Position Orientation Groundspeed Altitude Reporting Facility
EDT Latitude Longitude Course Direction KTS MPH feet Rate Location/Type
07:01PM 42.2072 -83.3531 188° South 169 194 1,300  Level Cleveland Center
07:02PM 42.1817 -83.3581 188° South 206 237 2,700 2,100 Climbing Cleveland Center
07:03PM 42.1258 -83.3611 182° South 240 276 4,500 2,580 Climbing Cleveland Center
07:04PM 42.0400 -83.3614 180° South 281 323 7,900 3,060 Climbing Cleveland Center
07:05PM 41.9547 -83.3558 177° South 298 343 10,900 2,400 Climbing Cleveland Center
07:06PM 41.8456 -83.3528 179° South 351 404 12,900 2,100 Climbing Cleveland Center
07:07PM 41.7347 -83.3444 177° South 392 451 15,300 2,640 Climbing Cleveland Center
07:08PM 41.6197 -83.3344 176° South 410 472 18,400 1,740 Climbing Cleveland Center
07:09PM 41.5014 -83.3250 177° South 419 482 19,000 240 Climbing Cleveland Center
07:10PM 41.3831 -83.3150 176° South 424 488 19,000 -60 Level Cleveland Center
07:11PM 41.2647 -83.3061 177° South 424 488 18,900 -780 Descending Cleveland Center
07:12PM 41.1469 -83.2961 176° South 424 488 17,500 -1,500 Descending Cleveland Center
07:13PM 41.0089 -83.2853 177° South 421 484 15,900 -1,260 Descending Cleveland Center
07:14PM 40.8953 -83.2750 176° South 416 479 15,000 -1,680 Descending Cleveland Center
07:15PM 40.7622 -83.2642 176° South 402 463 12,100 -2,220 Descending Indianapolis Center
07:16PM 40.6542 -83.2561 177° South 396 456 10,000 -1,080 Descending Indianapolis Center
07:17PM 40.5508 -83.2456 176° South 378 435 10,000  Level Indianapolis Center
07:18PM 40.4825 -83.1825 145° Southeast 395 455 10,000  Level Indianapolis Center
07:18PM 40.4633 -83.1619 141° Southeast 385 443 10,000  Level Indianapolis Center
07:19PM 40.3961 -83.0969 144° Southeast 389 448 10,000  Level Indianapolis Center
07:20PM 40.3581 -83.0597 143° Southeast 386 444 10,000  Level Indianapolis Center
07:20PM 40.3100 -83.0089 141° Southeast 397 457 10,000  Level Indianapolis Center
07:21PM 40.2733 -82.9744 144° Southeast 386 444 10,000 -420 Level Indianapolis Center
07:21PM 40.2311 -82.9331 143° Southeast 353 406 9,600 -1,020 Descending Indianapolis Center
07:22PM 40.1992 -82.8961 139° Southeast 359 413 9,000 -1,380 Descending Indianapolis Center
07:22PM 40.1617 -82.8425 132° Southeast 317 365 8,100 -1,500 Descending Indianapolis Center
07:23PM 40.1417 -82.8092 128° Southeast 324 373 7,500 -2,040 Descending Indianapolis Center
07:24PM 40.0875 -82.7281 131° Southeast 304 350 5,200 -2,220 Descending Indianapolis Center
07:24PM 40.0550 -82.6806 132° Southeast 274 315 4,000 -1,560 Descending Indianapolis Center
07:25PM 40.0342 -82.6644 149° Southeast 281 323 3,600 -840 Descending Indianapolis Center
07:25PM 39.9967 -82.6769 194° South 164 189 3,100 -600 Descending Indianapolis Center
07:26PM 39.9900 -82.6833 216° Southwest 214 246 3,000 -120 Descending Indianapolis Center
07:26PM 39.9842 -82.7214 259° West 143 165 3,000 -240 Level Indianapolis Center
07:27PM 39.9833 -82.7433 267° West 163 188 2,800 -600 Descending Indianapolis Center
07:27PM 39.9858 -82.7708 277° West 132 152 2,400 -720 Descending Indianapolis Center
07:28PM 39.9861 -82.7919 271° West 147 169 2,100 -720 Descending Indianapolis Center
07:28PM 39.9881 -82.8147 276° West 129 148 1,700 -720 Descending Indianapolis Center
07:29PM 39.9894 -82.8372 275° West 135 155 1,400 -660 Descending Indianapolis Center
07:29PM 39.9900 -82.8589 272° West 134 154 1,100 -300 Descending Indianapolis Center
07:30PM 39.9917 -82.8822 275° West 134 154 1,100  Level Indianapolis Center